Time;durP1;ratioP1;P1;durP2;ratioP2;P2;SDS_P1;SDS_P2;PMS_P1;PMS_P2;Temp;Humidity;BMP_temperature;BMP_pressure;BME280_temperature;BME280_humidity;BME280_pressure;Samples;Min_cycle;Max_cycle;Signal;HPM_P1;HPM_P2
2022/03/06 00:00:26;;;;;;;9.88;6.35;;;;;;;;;;4979359;28;20133;-80
2022/03/06 00:02:51;;;;;;;11.23;6.90;;;;;;;;;;4978498;28;20034;-79
2022/03/06 00:05:19;;;;;;;10.93;6.93;;;;;;;;;;4964030;28;20042;-79
2022/03/06 00:07:45;;;;;;;11.68;6.75;;;;;;;;;;4979967;28;20549;-78
2022/03/06 00:10:10;;;;;;;12.13;7.55;;;;;;;;;;4979023;28;20042;-79
2022/03/06 00:12:36;;;;;;;16.10;7.97;;;;;;;;;;4977677;28;20042;-79
2022/03/06 00:15:02;;;;;;;12.57;8.20;;;;;;;;;;4962723;28;20413;-79
2022/03/06 00:17:28;;;;;;;14.43;7.90;;;;;;;;;;4980618;28;20128;-80
2022/03/06 00:19:53;;;;;;;13.25;8.18;;;;;;;;;;4959301;28;20042;-80
2022/03/06 00:22:18;;;;;;;11.80;8.05;;;;;;;;;;4962234;28;20519;-80
2022/03/06 00:24:44;;;;;;;13.68;8.43;;;;;;;;;;4964358;28;20065;-80
2022/03/06 00:27:09;;;;;;;12.35;8.05;;;;;;;;;;4965288;28;20039;-80
2022/03/06 00:29:35;;;;;;;12.75;8.50;;;;;;;;;;4949176;28;20041;-80
2022/03/06 00:32:01;;;;;;;16.17;9.13;;;;;;;;;;4961332;28;20470;-81
2022/03/06 00:34:26;;;;;;;14.52;9.02;;;;;;;;;;4980265;28;20104;-81
2022/03/06 00:36:51;;;;;;;15.10;8.88;;;;;;;;;;4963525;28;20041;-81
2022/03/06 00:39:17;;;;;;;12.80;8.23;;;;;;;;;;4980312;28;20052;-80
2022/03/06 00:41:42;;;;;;;15.10;9.07;;;;;;;;;;4977965;28;20576;-80
2022/03/06 00:44:08;;;;;;;14.02;8.77;;;;;;;;;;4979970;28;20069;-80
2022/03/06 00:46:33;;;;;;;14.45;8.88;;;;;;;;;;4963554;28;20035;-80
2022/03/06 00:48:58;;;;;;;14.00;8.70;;;;;;;;;;4964519;28;20806;-79
2022/03/06 00:51:23;;;;;;;14.57;9.50;;;;;;;;;;4978544;28;20046;-80
2022/03/06 00:53:49;;;;;;;14.32;9.07;;;;;;;;;;4980883;28;20038;-78
2022/03/06 00:56:15;;;;;;;15.07;9.20;;;;;;;;;;4980057;28;20035;-75
2022/03/06 00:58:40;;;;;;;15.02;9.73;;;;;;;;;;4963308;28;20034;-80
2022/03/06 01:01:06;;;;;;;15.38;9.38;;;;;;;;;;4962611;28;20077;-74
2022/03/06 01:03:32;;;;;;;15.48;8.98;;;;;;;;;;4974709;28;20169;-75
2022/03/06 01:06:00;;;;;;;14.63;9.00;;;;;;;;;;4970614;28;20467;-74
2022/03/06 01:08:25;;;;;;;;;;;;;;;;;;4965242;28;20771;-80
2022/03/06 01:10:51;;;;;;;13.65;8.20;;;;;;;;;;4982014;28;20004;-80
2022/03/06 01:13:18;;;;;;;12.82;7.75;;;;;;;;;;4983111;28;20030;-80
2022/03/06 01:15:44;;;;;;;13.63;8.10;;;;;;;;;;4967541;28;20039;-80
2022/03/06 01:18:09;;;;;;;12.55;8.05;;;;;;;;;;4981897;28;20097;-80
2022/03/06 01:20:37;;;;;;;13.48;7.75;;;;;;;;;;4966770;28;20525;-80
2022/03/06 01:23:03;;;;;;;14.02;7.70;;;;;;;;;;4983002;28;20038;-79
2022/03/06 01:25:29;;;;;;;12.93;7.15;;;;;;;;;;4966052;28;20515;-79
2022/03/06 01:27:54;;;;;;;11.68;7.45;;;;;;;;;;4981534;28;20043;-80
2022/03/06 01:30:21;;;;;;;11.90;7.63;;;;;;;;;;4964647;28;20041;-80
2022/03/06 01:32:48;;;;;;;11.90;6.93;;;;;;;;;;4963434;28;20500;-80
2022/03/06 01:35:13;;;;;;;9.63;6.50;;;;;;;;;;4983017;28;20030;-79
2022/03/06 01:37:38;;;;;;;11.50;7.20;;;;;;;;;;4965597;28;20404;-79
2022/03/06 01:40:25;;;;;;;14.77;7.40;;;;;;;;;;4982457;28;20050;-79
2022/03/06 01:42:51;;;;;;;12.13;7.00;;;;;;;;;;4933077;28;20051;-79
2022/03/06 01:45:19;;;;;;;12.18;7.43;;;;;;;;;;4937273;28;20047;-79
2022/03/06 01:47:47;;;;;;;11.48;7.03;;;;;;;;;;4916028;28;20042;-79
2022/03/06 01:50:30;;;;;;;9.95;6.70;;;;;;;;;;4926465;28;20043;-80
2022/03/06 01:52:57;;;;;;;13.05;6.95;;;;;;;;;;4936546;28;20051;-80
2022/03/06 01:55:24;;;;;;;12.70;7.28;;;;;;;;;;4935169;28;20050;-79
2022/03/06 01:57:51;;;;;;;11.63;7.75;;;;;;;;;;4935092;28;20150;-79
2022/03/06 02:00:19;;;;;;;12.00;7.37;;;;;;;;;;4927907;28;20545;-79
2022/03/06 02:02:45;;;;;;;11.73;7.88;;;;;;;;;;4932592;28;20035;-79
2022/03/06 02:05:10;;;;;;;12.63;7.72;;;;;;;;;;4915701;28;20039;-79
2022/03/06 02:07:36;;;;;;;11.23;7.65;;;;;;;;;;4913004;28;20046;-79
2022/03/06 02:10:03;;;;;;;13.13;8.75;;;;;;;;;;4937240;28;20034;-79
2022/03/06 02:12:28;;;;;;;12.27;8.48;;;;;;;;;;4916301;28;20046;-80
2022/03/06 02:14:56;;;;;;;12.43;8.68;;;;;;;;;;4917919;28;20039;-80
2022/03/06 02:17:22;;;;;;;13.88;8.77;;;;;;;;;;4937413;28;20084;-80
2022/03/06 02:19:57;;;;;;;12.52;7.97;;;;;;;;;;4939739;28;20501;-79
2022/03/06 02:22:30;;;;;;;11.77;7.93;;;;;;;;;;4980906;28;20046;-80
2022/03/06 02:24:56;;;;;;;12.13;8.38;;;;;;;;;;4996600;28;20042;-80
2022/03/06 02:27:22;;;;;;;12.20;8.48;;;;;;;;;;4982032;28;20394;-80
2022/03/06 02:29:48;;;;;;;13.38;8.48;;;;;;;;;;4980829;28;20043;-79
2022/03/06 02:32:15;;;;;;;12.32;8.77;;;;;;;;;;4965343;28;20129;-79
2022/03/06 02:34:42;;;;;;;13.13;8.65;;;;;;;;;;4998419;28;20122;-79
2022/03/06 02:37:08;;;;;;;13.02;8.88;;;;;;;;;;4982086;28;20038;-79
2022/03/06 02:39:34;;;;;;;13.77;8.85;;;;;;;;;;4965739;28;20541;-81
2022/03/06 02:42:01;;;;;;;10.00;8.18;;;;;;;;;;4980614;28;20049;-80
2022/03/06 02:44:26;;;;;;;12.52;8.73;;;;;;;;;;4967132;28;20042;-80
2022/03/06 02:46:52;;;;;;;12.00;8.48;;;;;;;;;;4965192;28;20073;-79
2022/03/06 02:49:18;;;;;;;14.10;8.32;;;;;;;;;;4966010;28;20093;-79
2022/03/06 02:51:44;;;;;;;13.25;8.05;;;;;;;;;;4963962;28;20073;-79
2022/03/06 02:54:10;;;;;;;15.00;8.75;;;;;;;;;;4982453;28;20433;-79
2022/03/06 02:56:36;;;;;;;13.60;8.73;;;;;;;;;;4962845;28;20035;-80
2022/03/06 02:59:02;;;;;;;13.65;8.18;;;;;;;;;;4950458;28;20466;-80
2022/03/06 03:01:28;;;;;;;13.18;8.57;;;;;;;;;;4965845;28;20432;-79
2022/03/06 03:03:53;;;;;;;12.85;8.20;;;;;;;;;;4981253;28;20049;-80
2022/03/06 03:06:18;;;;;;;11.30;7.93;;;;;;;;;;4964983;28;20030;-79
2022/03/06 03:08:46;;;;;;;12.82;8.23;;;;;;;;;;4980134;28;20125;-78
2022/03/06 03:11:11;;;;;;;;;;;;;;;;;;4981817;28;20038;-79
2022/03/06 03:13:37;;;;;;;11.48;7.85;;;;;;;;;;4983384;28;20781;-79
2022/03/06 03:16:02;;;;;;;12.10;7.78;;;;;;;;;;4979750;28;20073;-80
2022/03/06 03:18:29;;;;;;;13.20;8.02;;;;;;;;;;4981084;28;20903;-79
2022/03/06 03:20:54;;;;;;;12.25;8.30;;;;;;;;;;4980881;28;20072;-80
2022/03/06 03:23:19;;;;;;;11.43;8.15;;;;;;;;;;4966979;28;20061;-80
2022/03/06 03:25:44;;;;;;;12.93;8.27;;;;;;;;;;4978712;28;20115;-78
2022/03/06 03:28:10;;;;;;;15.18;7.88;;;;;;;;;;4964134;28;20041;-80
2022/03/06 03:30:35;;;;;;;13.18;7.88;;;;;;;;;;4980718;28;20031;-79
2022/03/06 03:33:00;;;;;;;11.10;7.53;;;;;;;;;;4964308;28;20117;-81
2022/03/06 03:35:26;;;;;;;11.95;7.70;;;;;;;;;;4979424;28;20081;-81
2022/03/06 03:37:51;;;;;;;11.50;7.30;;;;;;;;;;4981552;28;21038;-79
2022/03/06 03:40:16;;;;;;;14.32;7.43;;;;;;;;;;4964008;28;20046;-78
2022/03/06 03:42:42;;;;;;;11.90;7.13;;;;;;;;;;4983823;28;20454;-79
2022/03/06 03:45:07;;;;;;;12.35;6.55;;;;;;;;;;4966710;28;20547;-79
2022/03/06 03:47:33;;;;;;;12.25;6.45;;;;;;;;;;4984093;28;20038;-79
2022/03/06 03:49:58;;;;;;;11.60;6.20;;;;;;;;;;4967318;28;20049;-79
2022/03/06 03:52:24;;;;;;;9.52;5.68;;;;;;;;;;4983189;28;20601;-79
2022/03/06 03:54:49;;;;;;;8.82;5.35;;;;;;;;;;4966310;28;20911;-79
2022/03/06 03:57:15;;;;;;;9.10;5.57;;;;;;;;;;4984165;28;20468;-79
2022/03/06 03:59:41;;;;;;;8.93;4.90;;;;;;;;;;4984998;28;20026;-79
2022/03/06 04:02:07;;;;;;;7.88;5.00;;;;;;;;;;4981588;28;20477;-79
2022/03/06 04:04:32;;;;;;;8.25;4.40;;;;;;;;;;4967941;28;20037;-78
2022/03/06 04:06:58;;;;;;;9.48;5.10;;;;;;;;;;5003938;28;20034;-78
2022/03/06 04:09:24;;;;;;;8.77;4.05;;;;;;;;;;4967217;28;20640;-80
2022/03/06 04:11:49;;;;;;;7.57;4.30;;;;;;;;;;4984187;28;20109;-79
2022/03/06 04:14:15;;;;;;;8.00;4.10;;;;;;;;;;4984774;28;20290;-77
2022/03/06 04:16:40;;;;;;;8.80;4.03;;;;;;;;;;4966779;28;20037;-78
2022/03/06 04:19:07;;;;;;;8.23;4.10;;;;;;;;;;4966580;28;20038;-79
2022/03/06 04:21:32;;;;;;;6.65;3.60;;;;;;;;;;4983121;28;20506;-79
2022/03/06 04:23:57;;;;;;;7.78;4.13;;;;;;;;;;4984054;28;20054;-79
2022/03/06 04:26:23;;;;;;;10.90;4.30;;;;;;;;;;4967120;28;20111;-80
2022/03/06 04:28:48;;;;;;;6.53;3.53;;;;;;;;;;4967941;28;20107;-79
2022/03/06 04:31:13;;;;;;;6.55;3.33;;;;;;;;;;4980987;28;20489;-79
2022/03/06 04:33:39;;;;;;;6.03;3.33;;;;;;;;;;4985122;28;20038;-79
2022/03/06 04:36:04;;;;;;;7.25;3.53;;;;;;;;;;4983618;28;20153;-80
2022/03/06 04:38:30;;;;;;;6.72;3.25;;;;;;;;;;4984521;28;20049;-79
2022/03/06 04:40:55;;;;;;;7.32;2.88;;;;;;;;;;4964705;28;20050;-79
2022/03/06 04:43:24;;;;;;;6.22;3.13;;;;;;;;;;4986816;28;20034;-79
2022/03/06 04:45:50;;;;;;;7.43;3.90;;;;;;;;;;4987229;28;20041;-79
2022/03/06 04:48:16;;;;;;;9.00;4.22;;;;;;;;;;4987278;28;20038;-79
2022/03/06 04:50:41;;;;;;;6.80;3.70;;;;;;;;;;4984647;28;20038;-79
2022/03/06 04:53:06;;;;;;;7.47;3.85;;;;;;;;;;4975174;28;20077;-79
2022/03/06 04:55:32;;;;;;;6.72;3.75;;;;;;;;;;4973605;28;20662;-80
2022/03/06 04:57:57;;;;;;;8.20;4.00;;;;;;;;;;4991400;28;20092;-79
2022/03/06 05:00:22;;;;;;;7.60;4.18;;;;;;;;;;4986117;28;20477;-79
2022/03/06 05:02:48;;;;;;;9.35;4.22;;;;;;;;;;4970428;28;20042;-79
2022/03/06 05:05:13;;;;;;;7.95;5.03;;;;;;;;;;4986110;28;20065;-79
2022/03/06 05:07:38;;;;;;;11.13;5.28;;;;;;;;;;4988905;28;20076;-80
2022/03/06 05:10:09;;;;;;;10.85;5.60;;;;;;;;;;4988389;28;20066;-80
2022/03/06 05:12:35;;;;;;;9.13;5.55;;;;;;;;;;4989297;28;20037;-80
2022/03/06 05:15:00;;;;;;;8.63;4.88;;;;;;;;;;4987926;28;20037;-79
2022/03/06 05:17:25;;;;;;;9.70;5.07;;;;;;;;;;4970161;28;20056;-80
2022/03/06 05:19:51;;;;;;;10.70;5.78;;;;;;;;;;4970325;28;20034;-79
2022/03/06 05:22:16;;;;;;;7.45;4.75;;;;;;;;;;4985738;28;20033;-79
2022/03/06 05:24:41;;;;;;;8.60;5.75;;;;;;;;;;4974284;28;20120;-79
2022/03/06 05:27:07;;;;;;;9.20;5.57;;;;;;;;;;4970553;28;20045;-79
2022/03/06 05:29:32;;;;;;;8.95;5.88;;;;;;;;;;4970966;28;20469;-79
2022/03/06 05:31:57;;;;;;;8.70;6.20;;;;;;;;;;4984261;28;20048;-79
2022/03/06 05:34:23;;;;;;;9.05;5.75;;;;;;;;;;4987139;28;20041;-79
2022/03/06 05:36:48;;;;;;;9.00;5.90;;;;;;;;;;4970008;28;20088;-79
2022/03/06 05:39:13;;;;;;;9.68;6.43;;;;;;;;;;4970864;28;20470;-79
2022/03/06 05:41:38;;;;;;;9.52;6.40;;;;;;;;;;4967727;28;20041;-79
2022/03/06 05:44:04;;;;;;;9.57;6.03;;;;;;;;;;4986297;28;20870;-79
2022/03/06 05:46:29;;;;;;;9.50;6.60;;;;;;;;;;4985768;28;20050;-78
2022/03/06 05:48:54;;;;;;;10.73;5.95;;;;;;;;;;4986231;28;20523;-80
2022/03/06 05:51:20;;;;;;;8.82;6.07;;;;;;;;;;4983962;28;20030;-79
2022/03/06 05:53:45;;;;;;;9.75;6.40;;;;;;;;;;5006689;28;20042;-79
2022/03/06 05:56:10;;;;;;;9.95;6.53;;;;;;;;;;4985542;28;20041;-79
2022/03/06 05:58:36;;;;;;;9.77;6.10;;;;;;;;;;4986950;28;20040;-79
2022/03/06 06:01:01;;;;;;;9.23;6.35;;;;;;;;;;4968950;28;20507;-79
2022/03/06 06:03:27;;;;;;;15.70;6.40;;;;;;;;;;4969926;28;20138;-79
2022/03/06 06:05:52;;;;;;;11.50;6.55;;;;;;;;;;4970025;28;20045;-79
2022/03/06 06:08:17;;;;;;;9.50;6.10;;;;;;;;;;4986727;28;20141;-80
2022/03/06 06:10:44;;;;;;;9.68;5.93;;;;;;;;;;5004671;28;20113;-78
2022/03/06 06:13:09;;;;;;;9.85;6.35;;;;;;;;;;4986001;28;20034;-79
2022/03/06 06:15:37;;;;;;;10.73;6.70;;;;;;;;;;4969429;28;20045;-79
2022/03/06 06:18:02;;;;;;;;;;;;;;;;;;4987418;28;20489;-80
2022/03/06 06:20:27;;;;;;;11.07;6.40;;;;;;;;;;4985822;28;19929;-80
2022/03/06 06:22:53;;;;;;;10.35;6.28;;;;;;;;;;4985178;28;20038;-80
2022/03/06 06:25:18;;;;;;;9.35;6.32;;;;;;;;;;4968919;28;20038;-79
2022/03/06 06:27:44;;;;;;;9.15;6.13;;;;;;;;;;4980957;28;20038;-79
2022/03/06 06:30:09;;;;;;;10.02;6.03;;;;;;;;;;4968924;28;20080;-79
2022/03/06 06:32:35;;;;;;;11.52;6.25;;;;;;;;;;4963797;28;20060;-77
2022/03/06 06:35:00;;;;;;;8.88;6.00;;;;;;;;;;4986339;28;20121;-79
2022/03/06 06:37:25;;;;;;;8.70;6.70;;;;;;;;;;4967028;28;20045;-84
2022/03/06 06:39:51;;;;;;;10.85;6.28;;;;;;;;;;4970880;28;20030;-85
2022/03/06 06:42:16;;;;;;;8.32;6.05;;;;;;;;;;4968516;28;20115;-86
2022/03/06 06:44:41;;;;;;;8.68;6.45;;;;;;;;;;4985678;28;20363;-84
2022/03/06 06:47:07;;;;;;;10.02;6.45;;;;;;;;;;4965578;28;20470;-83
2022/03/06 06:49:32;;;;;;;9.57;6.13;;;;;;;;;;4968967;28;20485;-84
2022/03/06 06:51:58;;;;;;;8.82;6.15;;;;;;;;;;4983489;28;20127;-85
2022/03/06 06:54:23;;;;;;;7.60;6.00;;;;;;;;;;4985225;28;20034;-86
2022/03/06 06:56:49;;;;;;;10.10;6.70;;;;;;;;;;4969337;28;20045;-86
2022/03/06 06:59:14;;;;;;;9.80;6.25;;;;;;;;;;4968052;28;20374;-86
2022/03/06 07:01:40;;;;;;;9.13;6.80;;;;;;;;;;4983601;28;20409;-87
2022/03/06 07:04:06;;;;;;;8.77;6.30;;;;;;;;;;4985839;28;20401;-85
2022/03/06 07:06:31;;;;;;;9.50;6.90;;;;;;;;;;4989411;28;20073;-85
2022/03/06 07:08:56;;;;;;;8.50;6.82;;;;;;;;;;4967489;28;20054;-87
2022/03/06 07:11:22;;;;;;;10.63;7.13;;;;;;;;;;4984822;28;20389;-86
2022/03/06 07:13:47;;;;;;;10.80;6.55;;;;;;;;;;4969602;28;20042;-86
2022/03/06 07:16:13;;;;;;;8.77;6.43;;;;;;;;;;4963870;28;20066;-86
2022/03/06 07:18:38;;;;;;;9.57;7.00;;;;;;;;;;4970191;28;20040;-85
2022/03/06 07:21:04;;;;;;;10.15;7.20;;;;;;;;;;4967884;28;20033;-85
2022/03/06 07:23:30;;;;;;;9.40;6.30;;;;;;;;;;4986922;28;20052;-86
2022/03/06 07:25:56;;;;;;;8.65;5.97;;;;;;;;;;4984209;28;20551;-85
2022/03/06 07:28:28;;;;;;;7.60;5.68;;;;;;;;;;4984090;28;20100;-85
2022/03/06 07:30:53;;;;;;;7.25;4.85;;;;;;;;;;4968302;28;20034;-88
2022/03/06 07:33:19;;;;;;;6.72;4.93;;;;;;;;;;4984034;28;20061;-86
2022/03/06 07:35:44;;;;;;;8.13;5.20;;;;;;;;;;4983626;28;20033;-86
2022/03/06 07:38:09;;;;;;;7.90;5.05;;;;;;;;;;4983839;28;20042;-84
2022/03/06 07:40:35;;;;;;;6.95;4.50;;;;;;;;;;4967352;28;20054;-86
2022/03/06 07:43:00;;;;;;;9.05;5.05;;;;;;;;;;4985056;28;20050;-87
2022/03/06 07:45:26;;;;;;;7.05;4.40;;;;;;;;;;4982200;28;20148;-88
2022/03/06 07:47:51;;;;;;;8.10;5.03;;;;;;;;;;4974487;28;20033;-87
2022/03/06 07:50:20;;;;;;;7.43;4.63;;;;;;;;;;4983484;28;20041;-87
2022/03/06 07:52:47;;;;;;;7.13;4.43;;;;;;;;;;4982480;28;20084;-86
2022/03/06 07:55:16;;;;;;;7.70;4.80;;;;;;;;;;4966389;28;20042;-86
2022/03/06 07:57:41;;;;;;;8.20;4.68;;;;;;;;;;4983396;28;20041;-85
2022/03/06 08:00:10;;;;;;;8.98;4.82;;;;;;;;;;4967956;28;20057;-85
2022/03/06 08:02:36;;;;;;;6.65;4.40;;;;;;;;;;4983341;28;20088;-85
2022/03/06 08:05:02;;;;;;;8.63;6.18;;;;;;;;;;4967662;28;20798;-86
2022/03/06 08:07:27;;;;;;;6.63;4.55;;;;;;;;;;4983464;28;20037;-85
2022/03/06 08:09:52;;;;;;;8.27;5.40;;;;;;;;;;4982676;28;20595;-86
2022/03/06 08:12:22;;;;;;;11.43;6.55;;;;;;;;;;4965892;28;20220;-85
2022/03/06 08:14:48;;;;;;;7.72;5.60;;;;;;;;;;4968079;28;20037;-84
2022/03/06 08:17:13;;;;;;;7.85;5.57;;;;;;;;;;4983475;28;20060;-86
2022/03/06 08:19:41;;;;;;;8.18;5.25;;;;;;;;;;4987611;28;20033;-85
2022/03/06 08:22:07;;;;;;;7.40;5.78;;;;;;;;;;4987101;28;20057;-88
2022/03/06 08:24:33;;;;;;;8.30;5.70;;;;;;;;;;5004934;28;20067;-87
2022/03/06 08:26:58;;;;;;;9.25;6.35;;;;;;;;;;4971257;28;20030;-86
2022/03/06 08:29:23;;;;;;;10.98;7.32;;;;;;;;;;4991029;28;20046;-84
2022/03/06 08:31:49;;;;;;;8.52;6.70;;;;;;;;;;4986963;28;20476;-86
2022/03/06 08:34:14;;;;;;;10.57;7.65;;;;;;;;;;4988849;28;20057;-83
2022/03/06 08:36:39;;;;;;;10.70;8.32;;;;;;;;;;4987922;28;20128;-85
2022/03/06 08:39:05;;;;;;;10.73;8.80;;;;;;;;;;4985282;28;20713;-83
2022/03/06 08:41:31;;;;;;;10.80;9.07;;;;;;;;;;4985515;28;20065;-84
2022/03/06 08:43:56;;;;;;;12.52;9.90;;;;;;;;;;4991186;28;20033;-77
2022/03/06 08:46:22;;;;;;;11.10;9.82;;;;;;;;;;4989970;28;20042;-76
2022/03/06 08:48:47;;;;;;;12.45;10.68;;;;;;;;;;4992222;28;20037;-77
2022/03/06 08:51:13;;;;;;;11.82;10.32;;;;;;;;;;4990863;28;20505;-78
2022/03/06 08:53:39;;;;;;;12.60;10.63;;;;;;;;;;5008219;28;20107;-76
2022/03/06 08:56:04;;;;;;;12.93;10.13;;;;;;;;;;4989261;28;20120;-83
2022/03/06 08:58:29;;;;;;;12.20;9.95;;;;;;;;;;4971716;28;20092;-84
2022/03/06 09:00:55;;;;;;;11.10;9.90;;;;;;;;;;4971228;28;20041;-86
2022/03/06 09:03:20;;;;;;;11.68;9.63;;;;;;;;;;4984763;28;20053;-84
2022/03/06 09:05:46;;;;;;;14.30;10.02;;;;;;;;;;4986784;28;20302;-83
2022/03/06 09:08:11;;;;;;;12.02;10.18;;;;;;;;;;4971905;28;20424;-81
2022/03/06 09:10:38;;;;;;;12.82;10.38;;;;;;;;;;4986440;28;20026;-82
2022/03/06 09:13:05;;;;;;;12.48;10.57;;;;;;;;;;4987092;28;20042;-84
2022/03/06 09:15:30;;;;;;;30.05;20.20;;;;;;;;;;4951265;28;20038;-84
2022/03/06 09:17:56;;;;;;;13.07;10.40;;;;;;;;;;4970019;28;20516;-83
2022/03/06 09:20:22;;;;;;;15.38;10.13;;;;;;;;;;5003304;28;20037;-84
2022/03/06 09:22:47;;;;;;;12.13;8.55;;;;;;;;;;4987965;28;20064;-83
2022/03/06 09:25:13;;;;;;;12.90;8.82;;;;;;;;;;4987480;28;20119;-82
2022/03/06 09:27:38;;;;;;;11.02;8.23;;;;;;;;;;4986902;28;20076;-83
2022/03/06 09:30:05;;;;;;;9.93;7.75;;;;;;;;;;4986006;28;21288;-82
2022/03/06 09:32:31;;;;;;;9.15;7.35;;;;;;;;;;4971778;28;20084;-82
2022/03/06 09:34:56;;;;;;;10.52;8.02;;;;;;;;;;5008420;28;20038;-84
2022/03/06 09:37:22;;;;;;;10.27;8.02;;;;;;;;;;4964856;28;20050;-83
2022/03/06 09:39:47;;;;;;;9.10;7.78;;;;;;;;;;4970974;28;20184;-85
2022/03/06 09:42:13;;;;;;;9.60;7.20;;;;;;;;;;4971184;28;20049;-82
2022/03/06 09:44:39;;;;;;;9.82;6.82;;;;;;;;;;4976382;28;20042;-82
2022/03/06 09:47:05;;;;;;;14.52;9.15;;;;;;;;;;5002156;28;20073;-82
2022/03/06 09:49:30;;;;;;;7.43;6.28;;;;;;;;;;4969135;28;20042;-82
2022/03/06 09:51:56;;;;;;;8.82;6.28;;;;;;;;;;4970673;28;20044;-83
2022/03/06 09:54:22;;;;;;;8.98;6.43;;;;;;;;;;4987408;28;20440;-84
2022/03/06 09:56:47;;;;;;;9.45;6.85;;;;;;;;;;5001215;28;20068;-83
2022/03/06 09:59:13;;;;;;;8.48;6.13;;;;;;;;;;4987614;28;20464;-83
2022/03/06 10:01:38;;;;;;;7.88;6.13;;;;;;;;;;4971001;28;20069;-83
2022/03/06 10:04:26;;;;;;;9.52;6.50;;;;;;;;;;4970574;28;20068;-83
2022/03/06 10:07:08;;;;;;;8.63;6.28;;;;;;;;;;4984420;28;20077;-85
2022/03/06 10:09:54;;;;;;;8.30;6.60;;;;;;;;;;4985841;28;20045;-83
2022/03/06 10:12:29;;;;;;;8.60;6.53;;;;;;;;;;4984652;28;20113;-83
2022/03/06 10:14:58;;;;;;;9.35;6.75;;;;;;;;;;4968508;28;20061;-85
2022/03/06 10:17:26;;;;;;;8.73;6.03;;;;;;;;;;5003340;28;20855;-83
2022/03/06 10:20:01;;;;;;;6.85;6.00;;;;;;;;;;4970798;28;20310;-85
2022/03/06 10:22:35;;;;;;;11.75;7.20;;;;;;;;;;5001496;28;20074;-84
2022/03/06 10:25:08;;;;;;;7.35;5.75;;;;;;;;;;4985530;28;20034;-78
2022/03/06 10:27:54;;;;;;;9.45;6.85;;;;;;;;;;4985220;28;20473;-82
2022/03/06 10:30:29;;;;;;;9.25;6.30;;;;;;;;;;4987432;28;20041;-83
2022/03/06 10:32:56;;;;;;;7.47;6.10;;;;;;;;;;5005493;28;20412;-83
2022/03/06 10:35:39;;;;;;;9.48;6.50;;;;;;;;;;4985666;28;20184;-85
2022/03/06 10:38:20;;;;;;;8.07;6.05;;;;;;;;;;4967262;28;20052;-84
2022/03/06 10:40:46;;;;;;;7.93;6.10;;;;;;;;;;4980282;28;20149;-83
2022/03/06 10:43:20;;;;;;;8.30;5.60;;;;;;;;;;4965706;28;20066;-84
2022/03/06 10:46:06;;;;;;;7.90;5.70;;;;;;;;;;4981685;28;20034;-82
2022/03/06 10:48:32;;;;;;;7.60;5.60;;;;;;;;;;4939991;29;20046;-83
2022/03/06 10:51:02;;;;;;;9.98;6.03;;;;;;;;;;4925353;29;20086;-83
2022/03/06 10:53:28;;;;;;;6.68;5.05;;;;;;;;;;4926257;29;20046;-83
2022/03/06 10:56:14;;;;;;;8.18;5.72;;;;;;;;;;4940891;29;20813;-83
2022/03/06 10:58:45;;;;;;;7.80;5.90;;;;;;;;;;4924027;29;20562;-83
2022/03/06 11:01:11;;;;;;;10.95;6.25;;;;;;;;;;4909134;29;20450;-83
2022/03/06 11:03:46;;;;;;;7.78;5.93;;;;;;;;;;5062080;27;20765;-82
2022/03/06 11:06:11;;;;;;;8.25;6.40;;;;;;;;;;5028494;28;20034;-83
2022/03/06 11:08:38;;;;;;;8.65;6.13;;;;;;;;;;5014539;28;20048;-83
2022/03/06 11:11:06;;;;;;;11.20;5.67;;;;;;;;;;5026877;28;20033;-84
2022/03/06 11:13:31;;;;;;;9.60;5.93;;;;;;;;;;5029797;28;20272;-83
2022/03/06 11:15:58;;;;;;;8.80;6.13;;;;;;;;;;5007505;28;20666;-85
2022/03/06 11:18:25;;;;;;;9.32;5.88;;;;;;;;;;5024853;28;20042;-83
2022/03/06 11:20:51;;;;;;;7.05;5.43;;;;;;;;;;5023091;28;20029;-83
2022/03/06 11:23:38;;;;;;;7.03;5.60;;;;;;;;;;5029476;28;20053;-83
2022/03/06 11:26:20;;;;;;;8.07;5.55;;;;;;;;;;5025344;28;20190;-84
2022/03/06 11:29:16;;;;;;;7.85;5.10;;;;;;;;;;5014342;28;21730;-84
2022/03/06 11:31:52;;;;;;;8.02;5.88;;;;;;;;;;5050630;28;20041;-83
2022/03/06 11:34:23;;;;;;;8.30;6.05;;;;;;;;;;5016214;28;20041;-82
2022/03/06 11:36:49;;;;;;;9.65;6.80;;;;;;;;;;5031314;28;20057;-83
2022/03/06 11:39:35;;;;;;;8.73;5.75;;;;;;;;;;5012528;28;20159;-81
2022/03/06 11:42:08;;;;;;;8.45;5.70;;;;;;;;;;5027552;28;20111;-83
2022/03/06 11:44:34;;;;;;;6.95;5.40;;;;;;;;;;5025364;28;20052;-82
2022/03/06 11:47:11;;;;;;;8.38;5.40;;;;;;;;;;5025896;28;20029;-83
2022/03/06 11:49:37;;;;;;;9.18;5.97;;;;;;;;;;5023738;28;20560;-83
2022/03/06 11:52:25;;;;;;;14.82;9.13;;;;;;;;;;5007288;28;20052;-82
2022/03/06 11:55:11;;;;;;;6.78;5.80;;;;;;;;;;5059808;28;20047;-83
2022/03/06 11:57:36;;;;;;;7.85;5.95;;;;;;;;;;4993209;28;20596;-83
2022/03/06 12:00:24;;;;;;;7.95;6.03;;;;;;;;;;4998295;28;20045;-83
2022/03/06 12:02:51;;;;;;;7.50;5.88;;;;;;;;;;4979339;28;20049;-83
2022/03/06 12:05:19;;;;;;;7.55;5.97;;;;;;;;;;4993909;28;20037;-83
2022/03/06 12:07:46;;;;;;;7.22;5.60;;;;;;;;;;4986069;28;20050;-82
2022/03/06 12:10:12;;;;;;;7.82;6.00;;;;;;;;;;4980236;28;20069;-82
2022/03/06 12:12:38;;;;;;;8.38;5.90;;;;;;;;;;4995922;28;20042;-83
2022/03/06 12:15:29;;;;;;;8.75;5.88;;;;;;;;;;4966633;28;20037;-82
2022/03/06 12:18:04;;;;;;;7.70;5.78;;;;;;;;;;4963271;28;20042;-83
2022/03/06 12:20:40;;;;;;;7.10;5.60;;;;;;;;;;4964738;28;20537;-83
2022/03/06 12:23:09;;;;;;;8.40;5.88;;;;;;;;;;4979720;28;20101;-83
2022/03/06 12:25:35;;;;;;;9.38;5.32;;;;;;;;;;4982891;28;20123;-83
2022/03/06 12:28:00;;;;;;;7.88;5.35;;;;;;;;;;4965200;28;20046;-83
2022/03/06 12:30:26;;;;;;;5.85;4.90;;;;;;;;;;4974494;28;20820;-83
2022/03/06 12:32:51;;;;;;;7.70;5.55;;;;;;;;;;4964193;28;20409;-84
2022/03/06 12:35:17;;;;;;;7.43;5.30;;;;;;;;;;4987355;28;20037;-82
2022/03/06 12:37:54;;;;;;;7.50;4.78;;;;;;;;;;5019591;28;20070;-83
2022/03/06 12:40:24;;;;;;;6.22;4.07;;;;;;;;;;5027374;28;20045;-83
2022/03/06 12:43:10;;;;;;;5.28;3.90;;;;;;;;;;5027464;28;20424;-83
2022/03/06 12:45:36;;;;;;;5.03;3.75;;;;;;;;;;5018711;28;20091;-82
2022/03/06 12:48:02;;;;;;;4.40;3.42;;;;;;;;;;5028975;28;20037;-84
2022/03/06 12:50:28;;;;;;;6.50;3.63;;;;;;;;;;5027729;28;20695;-83
2022/03/06 12:52:56;;;;;;;5.65;3.15;;;;;;;;;;5008762;28;20057;-82
2022/03/06 12:55:22;;;;;;;5.90;3.28;;;;;;;;;;4997649;28;20074;-82
2022/03/06 12:57:55;;;;;;;6.28;3.20;;;;;;;;;;4997773;28;20049;-82
2022/03/06 13:00:28;;;;;;;6.72;3.17;;;;;;;;;;5026303;28;20514;-82
2022/03/06 13:03:15;;;;;;;6.85;3.00;;;;;;;;;;5028824;28;20038;-83
2022/03/06 13:05:44;;;;;;;3.95;2.60;;;;;;;;;;4987896;28;20041;-82
2022/03/06 13:08:16;;;;;;;4.20;2.70;;;;;;;;;;5011120;28;20045;-81
2022/03/06 13:10:41;;;;;;;5.68;2.72;;;;;;;;;;5019481;28;20278;-81
2022/03/06 13:13:07;;;;;;;5.15;2.95;;;;;;;;;;5025225;28;20048;-82
2022/03/06 13:15:32;;;;;;;4.45;2.90;;;;;;;;;;4999140;28;20050;-82
2022/03/06 13:18:06;;;;;;;4.30;2.50;;;;;;;;;;4993079;28;20041;-82
2022/03/06 13:20:39;;;;;;;4.22;2.70;;;;;;;;;;5003079;28;20569;-82
2022/03/06 13:23:06;;;;;;;5.15;2.55;;;;;;;;;;5042178;28;20041;-82
2022/03/06 13:25:32;;;;;;;4.00;2.40;;;;;;;;;;5000828;28;20423;-82
2022/03/06 13:27:57;;;;;;;5.28;2.30;;;;;;;;;;5003176;28;20041;-81
2022/03/06 13:30:31;;;;;;;3.80;2.00;;;;;;;;;;5026030;28;20064;-82
2022/03/06 13:33:00;;;;;;;4.50;2.05;;;;;;;;;;5013445;28;20091;-82
2022/03/06 13:35:35;;;;;;;4.05;2.30;;;;;;;;;;4993117;28;20396;-81
2022/03/06 13:38:24;;;;;;;6.18;2.42;;;;;;;;;;5012965;28;20088;-82
2022/03/06 13:40:53;;;;;;;4.07;2.28;;;;;;;;;;4995284;28;20046;-81
2022/03/06 13:43:31;;;;;;;5.32;2.38;;;;;;;;;;4996920;28;20485;-82
2022/03/06 13:45:56;;;;;;;4.95;2.10;;;;;;;;;;5024867;28;20067;-82
2022/03/06 13:48:27;;;;;;;5.50;2.35;;;;;;;;;;5009384;28;20037;-82
2022/03/06 13:50:53;;;;;;;3.20;2.00;;;;;;;;;;5012785;28;20052;-82
2022/03/06 13:53:18;;;;;;;4.15;2.00;;;;;;;;;;5042694;28;20026;-82
2022/03/06 13:55:49;;;;;;;5.07;2.40;;;;;;;;;;5025867;28;20056;-82
2022/03/06 13:58:16;;;;;;;7.32;2.33;;;;;;;;;;5007588;28;20064;-82
2022/03/06 14:00:42;;;;;;;4.95;2.17;;;;;;;;;;5012444;28;20107;-82
2022/03/06 14:03:11;;;;;;;4.90;2.22;;;;;;;;;;5017693;28;20829;-84
2022/03/06 14:05:37;;;;;;;5.15;2.63;;;;;;;;;;5008266;28;20133;-83
2022/03/06 14:08:13;;;;;;;5.45;2.72;;;;;;;;;;4996487;28;20105;-83
2022/03/06 14:10:54;;;;;;;5.68;2.63;;;;;;;;;;5009752;28;20131;-84
2022/03/06 14:13:28;;;;;;;4.80;2.70;;;;;;;;;;4988889;28;20108;-83
2022/03/06 14:16:04;;;;;;;5.60;2.70;;;;;;;;;;5000804;28;20033;-83
2022/03/06 14:18:47;;;;;;;5.47;2.83;;;;;;;;;;5008927;28;20033;-84
2022/03/06 14:21:19;;;;;;;4.82;2.38;;;;;;;;;;4987989;28;20046;-83
2022/03/06 14:23:52;;;;;;;5.72;2.30;;;;;;;;;;5026063;28;20084;-83
2022/03/06 14:26:20;;;;;;;5.20;2.65;;;;;;;;;;5008956;28;20493;-83
2022/03/06 14:28:51;;;;;;;6.03;2.63;;;;;;;;;;5030236;28;20048;-83
2022/03/06 14:31:16;;;;;;;4.22;2.30;;;;;;;;;;5010774;28;20103;-84
2022/03/06 14:33:41;;;;;;;7.05;2.58;;;;;;;;;;5003038;28;20522;-83
2022/03/06 14:36:07;;;;;;;4.68;2.42;;;;;;;;;;4999144;28;20029;-84
2022/03/06 14:38:32;;;;;;;4.90;2.35;;;;;;;;;;5007527;28;20042;-84
2022/03/06 14:40:58;;;;;;;4.57;2.47;;;;;;;;;;4999135;28;20046;-84